sensor_id;sensor_type;location;lat;lon;timestamp;P1;durP1;ratioP1;P2;durP2;ratioP2
21352;SDS011;10834;52.268;6.770;2022-11-15T00:00:49;16.50;;;10.97;;
21352;SDS011;10834;52.268;6.770;2022-11-15T00:03:35;19.33;;;12.33;;
21352;SDS011;10834;52.268;6.770;2022-11-15T00:06:22;16.93;;;11.73;;
21352;SDS011;10834;52.268;6.770;2022-11-15T00:09:08;16.97;;;11.50;;
21352;SDS011;10834;52.268;6.770;2022-11-15T00:11:54;21.07;;;12.87;;
21352;SDS011;10834;52.268;6.770;2022-11-15T00:14:40;21.43;;;12.57;;
21352;SDS011;10834;52.268;6.770;2022-11-15T00:17:26;22.70;;;12.57;;
21352;SDS011;10834;52.268;6.770;2022-11-15T00:20:12;19.37;;;13.20;;
21352;SDS011;10834;52.268;6.770;2022-11-15T00:22:58;17.67;;;11.77;;
21352;SDS011;10834;52.268;6.770;2022-11-15T00:25:44;20.77;;;12.57;;
21352;SDS011;10834;52.268;6.770;2022-11-15T00:28:30;17.87;;;12.20;;
21352;SDS011;10834;52.268;6.770;2022-11-15T00:31:16;23.97;;;13.00;;
21352;SDS011;10834;52.268;6.770;2022-11-15T00:34:02;23.43;;;13.37;;
21352;SDS011;10834;52.268;6.770;2022-11-15T00:36:48;23.43;;;14.10;;
21352;SDS011;10834;52.268;6.770;2022-11-15T00:39:34;25.93;;;14.23;;
21352;SDS011;10834;52.268;6.770;2022-11-15T00:42:20;26.23;;;13.80;;
21352;SDS011;10834;52.268;6.770;2022-11-15T00:45:07;29.60;;;15.30;;
21352;SDS011;10834;52.268;6.770;2022-11-15T00:47:54;24.27;;;14.03;;
21352;SDS011;10834;52.268;6.770;2022-11-15T00:50:40;27.30;;;14.77;;
21352;SDS011;10834;52.268;6.770;2022-11-15T00:53:26;26.53;;;15.33;;
21352;SDS011;10834;52.268;6.770;2022-11-15T00:56:12;26.63;;;14.27;;
21352;SDS011;10834;52.268;6.770;2022-11-15T00:58:58;28.50;;;15.73;;
21352;SDS011;10834;52.268;6.770;2022-11-15T01:01:44;30.00;;;15.83;;
21352;SDS011;10834;52.268;6.770;2022-11-15T01:04:30;23.33;;;14.77;;
21352;SDS011;10834;52.268;6.770;2022-11-15T01:07:17;28.80;;;14.77;;
21352;SDS011;10834;52.268;6.770;2022-11-15T01:10:03;26.90;;;15.87;;
21352;SDS011;10834;52.268;6.770;2022-11-15T01:12:49;27.13;;;15.23;;
21352;SDS011;10834;52.268;6.770;2022-11-15T01:15:38;26.53;;;15.50;;
21352;SDS011;10834;52.268;6.770;2022-11-15T01:18:25;29.47;;;15.73;;
21352;SDS011;10834;52.268;6.770;2022-11-15T01:21:15;27.73;;;16.67;;
21352;SDS011;10834;52.268;6.770;2022-11-15T01:24:03;24.00;;;15.23;;
21352;SDS011;10834;52.268;6.770;2022-11-15T01:26:49;31.80;;;16.00;;
21352;SDS011;10834;52.268;6.770;2022-11-15T01:29:35;25.07;;;16.93;;
21352;SDS011;10834;52.268;6.770;2022-11-15T01:32:22;26.57;;;16.03;;
21352;SDS011;10834;52.268;6.770;2022-11-15T01:35:08;24.97;;;16.13;;
21352;SDS011;10834;52.268;6.770;2022-11-15T01:37:54;27.23;;;17.03;;
21352;SDS011;10834;52.268;6.770;2022-11-15T01:40:40;29.00;;;17.03;;
21352;SDS011;10834;52.268;6.770;2022-11-15T01:43:28;30.83;;;15.73;;
21352;SDS011;10834;52.268;6.770;2022-11-15T01:49:13;27.73;;;15.60;;
21352;SDS011;10834;52.268;6.770;2022-11-15T01:52:02;32.03;;;16.30;;
21352;SDS011;10834;52.268;6.770;2022-11-15T01:54:53;26.87;;;17.53;;
21352;SDS011;10834;52.268;6.770;2022-11-15T01:57:58;24.90;;;16.00;;
21352;SDS011;10834;52.268;6.770;2022-11-15T02:00:47;25.90;;;15.63;;
21352;SDS011;10834;52.268;6.770;2022-11-15T02:06:41;25.60;;;16.37;;
21352;SDS011;10834;52.268;6.770;2022-11-15T02:09:29;25.73;;;16.90;;
21352;SDS011;10834;52.268;6.770;2022-11-15T02:12:16;25.13;;;16.20;;
21352;SDS011;10834;52.268;6.770;2022-11-15T02:15:06;32.80;;;18.17;;
21352;SDS011;10834;52.268;6.770;2022-11-15T02:17:56;29.67;;;17.13;;
21352;SDS011;10834;52.268;6.770;2022-11-15T02:32:45;27.03;;;17.70;;
21352;SDS011;10834;52.268;6.770;2022-11-15T02:36:01;27.67;;;16.63;;
21352;SDS011;10834;52.268;6.770;2022-11-15T02:39:39;28.00;;;16.13;;
21352;SDS011;10834;52.268;6.770;2022-11-15T02:42:12;30.37;;;18.20;;
21352;SDS011;10834;52.268;6.770;2022-11-15T02:45:23;31.13;;;18.07;;
21352;SDS011;10834;52.268;6.770;2022-11-15T02:48:12;27.93;;;17.13;;
21352;SDS011;10834;52.268;6.770;2022-11-15T02:51:00;30.27;;;17.40;;
21352;SDS011;10834;52.268;6.770;2022-11-15T02:53:47;31.07;;;18.70;;
21352;SDS011;10834;52.268;6.770;2022-11-15T02:56:33;31.07;;;17.03;;
21352;SDS011;10834;52.268;6.770;2022-11-15T03:02:39;32.47;;;19.23;;
21352;SDS011;10834;52.268;6.770;2022-11-15T03:09:33;28.53;;;16.97;;
21352;SDS011;10834;52.268;6.770;2022-11-15T03:18:41;23.40;;;16.60;;
21352;SDS011;10834;52.268;6.770;2022-11-15T03:21:33;33.33;;;17.10;;
21352;SDS011;10834;52.268;6.770;2022-11-15T03:24:21;32.07;;;16.57;;
21352;SDS011;10834;52.268;6.770;2022-11-15T03:27:12;23.77;;;16.83;;
21352;SDS011;10834;52.268;6.770;2022-11-15T03:30:02;27.20;;;16.67;;
21352;SDS011;10834;52.268;6.770;2022-11-15T03:32:53;23.77;;;15.17;;
21352;SDS011;10834;52.268;6.770;2022-11-15T03:35:42;25.77;;;15.90;;
21352;SDS011;10834;52.268;6.770;2022-11-15T03:38:30;26.03;;;16.03;;
21352;SDS011;10834;52.268;6.770;2022-11-15T03:41:23;22.80;;;15.73;;
21352;SDS011;10834;52.268;6.770;2022-11-15T03:44:28;26.30;;;15.93;;
21352;SDS011;10834;52.268;6.770;2022-11-15T03:47:27;25.23;;;15.67;;
21352;SDS011;10834;52.268;6.770;2022-11-15T03:50:34;24.17;;;15.97;;
21352;SDS011;10834;52.268;6.770;2022-11-15T03:53:21;25.07;;;15.30;;
21352;SDS011;10834;52.268;6.770;2022-11-15T03:56:07;24.43;;;14.77;;
21352;SDS011;10834;52.268;6.770;2022-11-15T03:58:53;26.50;;;15.90;;
21352;SDS011;10834;52.268;6.770;2022-11-15T04:01:39;20.87;;;15.10;;
21352;SDS011;10834;52.268;6.770;2022-11-15T04:04:25;22.80;;;14.03;;
21352;SDS011;10834;52.268;6.770;2022-11-15T04:07:11;21.27;;;15.00;;
21352;SDS011;10834;52.268;6.770;2022-11-15T04:09:57;26.77;;;14.87;;
21352;SDS011;10834;52.268;6.770;2022-11-15T04:12:49;25.73;;;15.40;;
21352;SDS011;10834;52.268;6.770;2022-11-15T04:15:35;21.13;;;15.20;;
21352;SDS011;10834;52.268;6.770;2022-11-15T04:18:21;22.33;;;14.60;;
21352;SDS011;10834;52.268;6.770;2022-11-15T04:21:08;21.37;;;15.37;;
21352;SDS011;10834;52.268;6.770;2022-11-15T04:24:13;19.37;;;14.20;;
21352;SDS011;10834;52.268;6.770;2022-11-15T04:26:59;19.53;;;13.90;;
21352;SDS011;10834;52.268;6.770;2022-11-15T04:29:45;18.73;;;13.33;;
21352;SDS011;10834;52.268;6.770;2022-11-15T04:32:31;23.87;;;13.37;;
21352;SDS011;10834;52.268;6.770;2022-11-15T04:35:17;24.70;;;14.60;;
21352;SDS011;10834;52.268;6.770;2022-11-15T04:38:04;21.37;;;14.20;;
21352;SDS011;10834;52.268;6.770;2022-11-15T04:40:51;20.60;;;14.10;;
21352;SDS011;10834;52.268;6.770;2022-11-15T04:43:37;20.47;;;14.13;;
21352;SDS011;10834;52.268;6.770;2022-11-15T04:46:23;23.13;;;14.73;;
21352;SDS011;10834;52.268;6.770;2022-11-15T04:49:10;21.17;;;13.67;;
21352;SDS011;10834;52.268;6.770;2022-11-15T04:51:56;21.07;;;13.40;;
21352;SDS011;10834;52.268;6.770;2022-11-15T04:54:42;21.27;;;14.73;;
21352;SDS011;10834;52.268;6.770;2022-11-15T04:57:28;21.40;;;13.23;;
21352;SDS011;10834;52.268;6.770;2022-11-15T05:00:15;25.70;;;14.80;;
21352;SDS011;10834;52.268;6.770;2022-11-15T05:03:02;22.70;;;13.90;;
21352;SDS011;10834;52.268;6.770;2022-11-15T05:06:07;21.53;;;13.60;;
21352;SDS011;10834;52.268;6.770;2022-11-15T05:08:53;18.93;;;12.97;;
21352;SDS011;10834;52.268;6.770;2022-11-15T05:11:39;19.30;;;13.70;;
21352;SDS011;10834;52.268;6.770;2022-11-15T05:14:26;16.20;;;12.67;;
21352;SDS011;10834;52.268;6.770;2022-11-15T05:17:12;21.27;;;12.80;;
21352;SDS011;10834;52.268;6.770;2022-11-15T05:19:58;18.37;;;13.33;;
21352;SDS011;10834;52.268;6.770;2022-11-15T05:22:44;19.30;;;14.40;;
21352;SDS011;10834;52.268;6.770;2022-11-15T05:25:30;18.83;;;13.53;;
21352;SDS011;10834;52.268;6.770;2022-11-15T05:28:16;18.47;;;12.87;;
21352;SDS011;10834;52.268;6.770;2022-11-15T05:31:10;16.67;;;12.00;;
21352;SDS011;10834;52.268;6.770;2022-11-15T05:33:57;19.40;;;13.93;;
21352;SDS011;10834;52.268;6.770;2022-11-15T05:36:44;21.87;;;12.47;;
21352;SDS011;10834;52.268;6.770;2022-11-15T05:39:31;22.57;;;13.37;;
21352;SDS011;10834;52.268;6.770;2022-11-15T05:42:17;19.43;;;13.43;;
21352;SDS011;10834;52.268;6.770;2022-11-15T05:45:04;15.93;;;11.80;;
21352;SDS011;10834;52.268;6.770;2022-11-15T05:47:52;17.27;;;12.40;;
21352;SDS011;10834;52.268;6.770;2022-11-15T05:50:40;19.60;;;13.20;;
21352;SDS011;10834;52.268;6.770;2022-11-15T05:53:29;19.70;;;13.50;;
21352;SDS011;10834;52.268;6.770;2022-11-15T05:56:16;16.43;;;12.00;;
21352;SDS011;10834;52.268;6.770;2022-11-15T05:59:02;19.40;;;12.90;;
21352;SDS011;10834;52.268;6.770;2022-11-15T06:01:49;18.37;;;13.10;;
21352;SDS011;10834;52.268;6.770;2022-11-15T06:04:35;18.20;;;12.97;;
21352;SDS011;10834;52.268;6.770;2022-11-15T06:07:21;18.37;;;13.27;;
21352;SDS011;10834;52.268;6.770;2022-11-15T06:10:08;18.23;;;13.23;;
21352;SDS011;10834;52.268;6.770;2022-11-15T06:12:57;20.37;;;12.73;;
21352;SDS011;10834;52.268;6.770;2022-11-15T06:15:48;20.27;;;13.90;;
21352;SDS011;10834;52.268;6.770;2022-11-15T06:18:34;20.13;;;13.03;;
21352;SDS011;10834;52.268;6.770;2022-11-15T06:21:21;18.40;;;13.73;;
21352;SDS011;10834;52.268;6.770;2022-11-15T06:24:07;19.17;;;14.10;;
21352;SDS011;10834;52.268;6.770;2022-11-15T06:26:53;22.67;;;14.90;;
21352;SDS011;10834;52.268;6.770;2022-11-15T06:29:39;21.37;;;15.20;;
21352;SDS011;10834;52.268;6.770;2022-11-15T06:32:25;22.87;;;14.53;;
21352;SDS011;10834;52.268;6.770;2022-11-15T06:35:12;23.47;;;14.97;;
21352;SDS011;10834;52.268;6.770;2022-11-15T06:38:08;21.37;;;15.17;;
21352;SDS011;10834;52.268;6.770;2022-11-15T06:40:55;19.63;;;15.03;;
21352;SDS011;10834;52.268;6.770;2022-11-15T06:43:46;21.70;;;15.97;;
21352;SDS011;10834;52.268;6.770;2022-11-15T06:46:32;22.37;;;15.37;;
21352;SDS011;10834;52.268;6.770;2022-11-15T06:49:18;24.43;;;16.47;;
21352;SDS011;10834;52.268;6.770;2022-11-15T06:52:04;22.93;;;16.43;;
21352;SDS011;10834;52.268;6.770;2022-11-15T06:54:50;20.80;;;15.27;;
21352;SDS011;10834;52.268;6.770;2022-11-15T06:57:36;20.60;;;15.20;;
21352;SDS011;10834;52.268;6.770;2022-11-15T07:00:22;23.00;;;16.13;;
21352;SDS011;10834;52.268;6.770;2022-11-15T07:03:09;25.17;;;16.70;;
21352;SDS011;10834;52.268;6.770;2022-11-15T07:05:56;23.83;;;16.30;;
21352;SDS011;10834;52.268;6.770;2022-11-15T07:08:42;24.83;;;18.33;;
21352;SDS011;10834;52.268;6.770;2022-11-15T07:11:28;25.93;;;16.77;;
21352;SDS011;10834;52.268;6.770;2022-11-15T07:14:14;25.57;;;16.90;;
21352;SDS011;10834;52.268;6.770;2022-11-15T07:17:03;24.80;;;16.67;;
21352;SDS011;10834;52.268;6.770;2022-11-15T07:19:50;22.83;;;15.83;;
21352;SDS011;10834;52.268;6.770;2022-11-15T07:22:36;23.83;;;17.03;;
21352;SDS011;10834;52.268;6.770;2022-11-15T07:25:22;24.50;;;17.17;;
21352;SDS011;10834;52.268;6.770;2022-11-15T07:28:08;21.13;;;16.83;;
21352;SDS011;10834;52.268;6.770;2022-11-15T07:30:54;22.77;;;17.47;;
21352;SDS011;10834;52.268;6.770;2022-11-15T07:33:40;25.53;;;17.53;;
21352;SDS011;10834;52.268;6.770;2022-11-15T07:36:27;23.83;;;16.97;;
21352;SDS011;10834;52.268;6.770;2022-11-15T07:39:13;22.77;;;16.23;;
21352;SDS011;10834;52.268;6.770;2022-11-15T07:41:59;25.17;;;17.90;;
21352;SDS011;10834;52.268;6.770;2022-11-15T07:45:04;23.70;;;17.83;;
21352;SDS011;10834;52.268;6.770;2022-11-15T07:47:51;23.20;;;16.00;;
21352;SDS011;10834;52.268;6.770;2022-11-15T07:50:40;21.10;;;16.30;;
21352;SDS011;10834;52.268;6.770;2022-11-15T07:53:27;22.27;;;17.40;;
21352;SDS011;10834;52.268;6.770;2022-11-15T07:56:13;24.70;;;16.80;;
21352;SDS011;10834;52.268;6.770;2022-11-15T07:58:59;20.33;;;16.93;;
21352;SDS011;10834;52.268;6.770;2022-11-15T08:01:46;25.03;;;18.10;;
21352;SDS011;10834;52.268;6.770;2022-11-15T08:04:32;29.40;;;19.17;;
21352;SDS011;10834;52.268;6.770;2022-11-15T08:07:18;29.93;;;20.57;;
21352;SDS011;10834;52.268;6.770;2022-11-15T08:10:04;27.30;;;19.60;;
21352;SDS011;10834;52.268;6.770;2022-11-15T08:12:57;29.83;;;21.03;;
21352;SDS011;10834;52.268;6.770;2022-11-15T08:15:44;25.50;;;18.87;;
21352;SDS011;10834;52.268;6.770;2022-11-15T08:18:30;28.83;;;19.57;;
21352;SDS011;10834;52.268;6.770;2022-11-15T08:21:17;25.13;;;19.23;;
21352;SDS011;10834;52.268;6.770;2022-11-15T08:24:05;31.40;;;19.80;;
21352;SDS011;10834;52.268;6.770;2022-11-15T08:26:51;30.00;;;19.93;;
21352;SDS011;10834;52.268;6.770;2022-11-15T08:29:37;31.90;;;18.40;;
21352;SDS011;10834;52.268;6.770;2022-11-15T08:32:23;28.53;;;17.83;;
21352;SDS011;10834;52.268;6.770;2022-11-15T08:35:09;22.83;;;15.23;;
21352;SDS011;10834;52.268;6.770;2022-11-15T08:37:55;22.63;;;15.23;;
21352;SDS011;10834;52.268;6.770;2022-11-15T08:40:41;17.53;;;14.23;;
21352;SDS011;10834;52.268;6.770;2022-11-15T08:43:27;18.27;;;14.17;;
21352;SDS011;10834;52.268;6.770;2022-11-15T08:46:13;20.83;;;11.97;;
21352;SDS011;10834;52.268;6.770;2022-11-15T08:49:00;18.97;;;13.50;;
21352;SDS011;10834;52.268;6.770;2022-11-15T08:51:46;18.27;;;13.43;;
21352;SDS011;10834;52.268;6.770;2022-11-15T08:54:32;17.47;;;10.93;;
21352;SDS011;10834;52.268;6.770;2022-11-15T08:57:18;13.80;;;11.07;;
21352;SDS011;10834;52.268;6.770;2022-11-15T09:00:04;17.70;;;9.73;;
21352;SDS011;10834;52.268;6.770;2022-11-15T09:02:50;11.33;;;9.17;;
21352;SDS011;10834;52.268;6.770;2022-11-15T09:05:37;10.60;;;8.53;;
21352;SDS011;10834;52.268;6.770;2022-11-15T09:08:23;10.17;;;8.23;;
21352;SDS011;10834;52.268;6.770;2022-11-15T09:11:10;11.80;;;8.07;;
21352;SDS011;10834;52.268;6.770;2022-11-15T09:13:57;12.63;;;7.63;;
21352;SDS011;10834;52.268;6.770;2022-11-15T09:16:43;12.40;;;9.03;;
21352;SDS011;10834;52.268;6.770;2022-11-15T09:19:29;9.63;;;8.20;;
21352;SDS011;10834;52.268;6.770;2022-11-15T09:22:15;9.87;;;8.73;;
21352;SDS011;10834;52.268;6.770;2022-11-15T09:25:02;11.87;;;9.40;;
21352;SDS011;10834;52.268;6.770;2022-11-15T09:27:48;10.77;;;9.67;;
21352;SDS011;10834;52.268;6.770;2022-11-15T09:30:34;11.57;;;9.77;;
21352;SDS011;10834;52.268;6.770;2022-11-15T09:33:20;10.53;;;9.40;;
21352;SDS011;10834;52.268;6.770;2022-11-15T09:36:07;13.17;;;10.10;;
21352;SDS011;10834;52.268;6.770;2022-11-15T09:38:54;10.17;;;8.23;;
21352;SDS011;10834;52.268;6.770;2022-11-15T09:48:02;7.70;;;6.63;;
21352;SDS011;10834;52.268;6.770;2022-11-15T09:51:00;9.17;;;5.70;;
21352;SDS011;10834;52.268;6.770;2022-11-15T09:56:42;8.40;;;5.27;;
21352;SDS011;10834;52.268;6.770;2022-11-15T10:02:43;11.27;;;4.73;;
21352;SDS011;10834;52.268;6.770;2022-11-15T10:05:46;6.67;;;4.23;;
21352;SDS011;10834;52.268;6.770;2022-11-15T10:08:37;5.43;;;3.97;;
21352;SDS011;10834;52.268;6.770;2022-11-15T10:11:32;6.97;;;4.20;;
21352;SDS011;10834;52.268;6.770;2022-11-15T10:14:24;6.43;;;4.20;;
21352;SDS011;10834;52.268;6.770;2022-11-15T10:17:51;5.90;;;4.50;;
21352;SDS011;10834;52.268;6.770;2022-11-15T10:20:50;6.13;;;4.73;;
21352;SDS011;10834;52.268;6.770;2022-11-15T10:23:44;5.37;;;4.47;;
21352;SDS011;10834;52.268;6.770;2022-11-15T10:26:30;5.47;;;3.97;;
21352;SDS011;10834;52.268;6.770;2022-11-15T10:29:20;5.27;;;4.60;;
21352;SDS011;10834;52.268;6.770;2022-11-15T10:32:06;6.67;;;5.03;;
21352;SDS011;10834;52.268;6.770;2022-11-15T10:34:52;7.00;;;5.17;;
21352;SDS011;10834;52.268;6.770;2022-11-15T10:37:38;7.20;;;4.83;;
21352;SDS011;10834;52.268;6.770;2022-11-15T10:40:25;5.00;;;4.50;;
21352;SDS011;10834;52.268;6.770;2022-11-15T10:43:15;5.93;;;5.23;;
21352;SDS011;10834;52.268;6.770;2022-11-15T10:46:16;4.47;;;3.80;;
21352;SDS011;10834;52.268;6.770;2022-11-15T10:49:12;6.07;;;4.00;;
21352;SDS011;10834;52.268;6.770;2022-11-15T10:52:04;4.50;;;4.10;;
21352;SDS011;10834;52.268;6.770;2022-11-15T10:58:09;4.47;;;3.47;;
21352;SDS011;10834;52.268;6.770;2022-11-15T11:01:17;4.30;;;2.90;;
21352;SDS011;10834;52.268;6.770;2022-11-15T11:04:09;4.40;;;3.30;;
21352;SDS011;10834;52.268;6.770;2022-11-15T11:06:57;7.80;;;2.70;;
21352;SDS011;10834;52.268;6.770;2022-11-15T11:09:44;6.67;;;2.77;;
21352;SDS011;10834;52.268;6.770;2022-11-15T11:12:31;5.30;;;3.13;;
21352;SDS011;10834;52.268;6.770;2022-11-15T11:15:18;4.67;;;3.30;;
21352;SDS011;10834;52.268;6.770;2022-11-15T11:18:10;5.40;;;2.30;;
21352;SDS011;10834;52.268;6.770;2022-11-15T11:21:37;4.90;;;1.90;;
21352;SDS011;10834;52.268;6.770;2022-11-15T11:24:38;2.67;;;2.37;;
21352;SDS011;10834;52.268;6.770;2022-11-15T11:33:58;3.97;;;1.93;;
21352;SDS011;10834;52.268;6.770;2022-11-15T11:47:00;1.47;;;1.13;;
21352;SDS011;10834;52.268;6.770;2022-11-15T11:53:39;2.63;;;1.20;;
21352;SDS011;10834;52.268;6.770;2022-11-15T12:02:38;3.27;;;2.30;;
21352;SDS011;10834;52.268;6.770;2022-11-15T12:15:18;4.00;;;3.60;;
21352;SDS011;10834;52.268;6.770;2022-11-15T12:18:12;6.33;;;4.50;;
21352;SDS011;10834;52.268;6.770;2022-11-15T12:21:02;6.70;;;4.80;;
21352;SDS011;10834;52.268;6.770;2022-11-15T12:23:54;4.67;;;4.27;;
21352;SDS011;10834;52.268;6.770;2022-11-15T12:26:52;5.40;;;4.20;;
21352;SDS011;10834;52.268;6.770;2022-11-15T12:29:51;6.70;;;5.53;;
21352;SDS011;10834;52.268;6.770;2022-11-15T12:33:02;7.10;;;4.40;;
21352;SDS011;10834;52.268;6.770;2022-11-15T12:35:56;6.70;;;5.27;;
21352;SDS011;10834;52.268;6.770;2022-11-15T12:38:58;8.90;;;5.83;;
21352;SDS011;10834;52.268;6.770;2022-11-15T12:47:26;6.33;;;5.27;;
21352;SDS011;10834;52.268;6.770;2022-11-15T12:50:12;5.87;;;5.10;;
21352;SDS011;10834;52.268;6.770;2022-11-15T12:59:06;5.37;;;4.50;;
21352;SDS011;10834;52.268;6.770;2022-11-15T13:01:55;6.17;;;4.73;;
21352;SDS011;10834;52.268;6.770;2022-11-15T13:04:43;8.10;;;5.00;;
21352;SDS011;10834;52.268;6.770;2022-11-15T13:10:29;5.00;;;4.50;;
21352;SDS011;10834;52.268;6.770;2022-11-15T13:13:40;6.00;;;3.90;;
21352;SDS011;10834;52.268;6.770;2022-11-15T13:16:29;4.33;;;3.20;;
21352;SDS011;10834;52.268;6.770;2022-11-15T13:19:16;3.07;;;2.60;;
21352;SDS011;10834;52.268;6.770;2022-11-15T13:22:10;6.40;;;2.87;;
21352;SDS011;10834;52.268;6.770;2022-11-15T13:28:43;4.33;;;2.93;;
21352;SDS011;10834;52.268;6.770;2022-11-15T13:31:37;4.30;;;2.90;;
21352;SDS011;10834;52.268;6.770;2022-11-15T13:34:28;6.00;;;3.80;;
21352;SDS011;10834;52.268;6.770;2022-11-15T13:40:26;9.03;;;2.30;;
21352;SDS011;10834;52.268;6.770;2022-11-15T13:43:36;5.77;;;3.10;;
21352;SDS011;10834;52.268;6.770;2022-11-15T13:46:23;3.07;;;2.13;;
21352;SDS011;10834;52.268;6.770;2022-11-15T13:49:12;2.93;;;2.40;;
21352;SDS011;10834;52.268;6.770;2022-11-15T13:51:59;4.03;;;2.93;;
21352;SDS011;10834;52.268;6.770;2022-11-15T13:54:48;5.40;;;2.63;;
21352;SDS011;10834;52.268;6.770;2022-11-15T13:57:46;3.53;;;2.13;;
21352;SDS011;10834;52.268;6.770;2022-11-15T14:00:38;2.47;;;1.60;;
21352;SDS011;10834;52.268;6.770;2022-11-15T14:03:29;3.00;;;1.37;;
21352;SDS011;10834;52.268;6.770;2022-11-15T14:06:18;2.03;;;1.37;;
21352;SDS011;10834;52.268;6.770;2022-11-15T14:11:55;3.97;;;1.97;;
21352;SDS011;10834;52.268;6.770;2022-11-15T14:14:45;5.83;;;2.20;;
21352;SDS011;10834;52.268;6.770;2022-11-15T14:17:35;5.03;;;1.67;;
21352;SDS011;10834;52.268;6.770;2022-11-15T14:23:26;4.10;;;1.60;;
21352;SDS011;10834;52.268;6.770;2022-11-15T14:26:26;1.90;;;1.70;;
21352;SDS011;10834;52.268;6.770;2022-11-15T14:29:25;4.43;;;1.27;;
21352;SDS011;10834;52.268;6.770;2022-11-15T14:32:14;5.07;;;1.60;;
21352;SDS011;10834;52.268;6.770;2022-11-15T14:35:09;3.37;;;1.23;;
21352;SDS011;10834;52.268;6.770;2022-11-15T14:37:59;2.50;;;1.17;;
21352;SDS011;10834;52.268;6.770;2022-11-15T14:40:46;5.83;;;1.80;;
21352;SDS011;10834;52.268;6.770;2022-11-15T14:43:32;3.43;;;2.77;;
21352;SDS011;10834;52.268;6.770;2022-11-15T14:46:18;2.43;;;2.23;;
21352;SDS011;10834;52.268;6.770;2022-11-15T14:49:04;6.17;;;1.77;;
21352;SDS011;10834;52.268;6.770;2022-11-15T14:51:50;5.10;;;1.80;;
21352;SDS011;10834;52.268;6.770;2022-11-15T14:54:36;4.13;;;1.60;;
21352;SDS011;10834;52.268;6.770;2022-11-15T14:57:23;4.60;;;1.70;;
21352;SDS011;10834;52.268;6.770;2022-11-15T15:00:09;2.30;;;1.00;;
21352;SDS011;10834;52.268;6.770;2022-11-15T15:02:55;1.80;;;1.00;;
21352;SDS011;10834;52.268;6.770;2022-11-15T15:05:42;6.23;;;1.47;;
21352;SDS011;10834;52.268;6.770;2022-11-15T15:08:29;3.27;;;1.30;;
21352;SDS011;10834;52.268;6.770;2022-11-15T15:11:16;3.97;;;1.10;;
21352;SDS011;10834;52.268;6.770;2022-11-15T15:14:07;2.33;;;1.50;;
21352;SDS011;10834;52.268;6.770;2022-11-15T15:16:54;1.23;;;1.13;;
21352;SDS011;10834;52.268;6.770;2022-11-15T15:19:40;2.57;;;1.20;;
21352;SDS011;10834;52.268;6.770;2022-11-15T15:22:26;1.50;;;1.23;;
21352;SDS011;10834;52.268;6.770;2022-11-15T15:28:14;3.90;;;1.70;;
21352;SDS011;10834;52.268;6.770;2022-11-15T15:31:01;2.37;;;1.40;;
21352;SDS011;10834;52.268;6.770;2022-11-15T15:33:47;4.97;;;1.40;;
21352;SDS011;10834;52.268;6.770;2022-11-15T15:36:33;5.30;;;1.70;;
21352;SDS011;10834;52.268;6.770;2022-11-15T15:39:19;2.97;;;1.60;;
21352;SDS011;10834;52.268;6.770;2022-11-15T15:42:05;4.47;;;2.27;;
21352;SDS011;10834;52.268;6.770;2022-11-15T15:44:51;7.80;;;3.07;;
21352;SDS011;10834;52.268;6.770;2022-11-15T15:47:38;5.53;;;2.10;;
21352;SDS011;10834;52.268;6.770;2022-11-15T15:50:25;5.00;;;2.13;;
21352;SDS011;10834;52.268;6.770;2022-11-15T15:53:15;3.47;;;1.60;;
21352;SDS011;10834;52.268;6.770;2022-11-15T15:56:02;4.67;;;2.07;;
21352;SDS011;10834;52.268;6.770;2022-11-15T15:58:49;2.40;;;1.60;;
21352;SDS011;10834;52.268;6.770;2022-11-15T16:01:37;2.03;;;1.50;;
21352;SDS011;10834;52.268;6.770;2022-11-15T16:04:23;2.13;;;1.33;;
21352;SDS011;10834;52.268;6.770;2022-11-15T16:07:17;2.67;;;1.23;;
21352;SDS011;10834;52.268;6.770;2022-11-15T16:10:20;2.53;;;1.40;;
21352;SDS011;10834;52.268;6.770;2022-11-15T16:13:08;2.70;;;1.57;;
21352;SDS011;10834;52.268;6.770;2022-11-15T16:15:54;2.60;;;1.70;;
21352;SDS011;10834;52.268;6.770;2022-11-15T16:18:41;3.70;;;1.50;;
21352;SDS011;10834;52.268;6.770;2022-11-15T16:21:27;5.20;;;2.43;;
21352;SDS011;10834;52.268;6.770;2022-11-15T16:24:13;2.73;;;1.83;;
21352;SDS011;10834;52.268;6.770;2022-11-15T16:26:59;4.43;;;1.57;;
21352;SDS011;10834;52.268;6.770;2022-11-15T16:29:46;2.97;;;1.27;;
21352;SDS011;10834;52.268;6.770;2022-11-15T16:32:32;2.33;;;1.70;;
21352;SDS011;10834;52.268;6.770;2022-11-15T16:35:18;3.63;;;2.17;;
21352;SDS011;10834;52.268;6.770;2022-11-15T16:38:04;4.73;;;2.13;;
21352;SDS011;10834;52.268;6.770;2022-11-15T16:40:50;2.93;;;1.80;;
21352;SDS011;10834;52.268;6.770;2022-11-15T16:43:36;2.63;;;1.63;;
21352;SDS011;10834;52.268;6.770;2022-11-15T16:46:26;2.43;;;1.20;;
21352;SDS011;10834;52.268;6.770;2022-11-15T16:49:14;1.77;;;1.30;;
21352;SDS011;10834;52.268;6.770;2022-11-15T16:52:00;3.53;;;1.57;;
21352;SDS011;10834;52.268;6.770;2022-11-15T16:54:46;2.77;;;1.50;;
21352;SDS011;10834;52.268;6.770;2022-11-15T16:57:32;2.53;;;1.30;;
21352;SDS011;10834;52.268;6.770;2022-11-15T17:00:18;5.57;;;1.60;;
21352;SDS011;10834;52.268;6.770;2022-11-15T17:03:05;4.57;;;1.90;;
21352;SDS011;10834;52.268;6.770;2022-11-15T17:05:51;3.37;;;1.80;;
21352;SDS011;10834;52.268;6.770;2022-11-15T17:08:37;3.37;;;1.70;;
21352;SDS011;10834;52.268;6.770;2022-11-15T17:11:23;1.93;;;1.37;;
21352;SDS011;10834;52.268;6.770;2022-11-15T17:14:10;3.33;;;1.60;;
21352;SDS011;10834;52.268;6.770;2022-11-15T17:16:56;3.80;;;1.57;;
21352;SDS011;10834;52.268;6.770;2022-11-15T17:19:42;2.57;;;1.23;;
21352;SDS011;10834;52.268;6.770;2022-11-15T17:22:28;2.80;;;1.37;;
21352;SDS011;10834;52.268;6.770;2022-11-15T17:25:14;3.30;;;1.87;;
21352;SDS011;10834;52.268;6.770;2022-11-15T17:28:01;3.13;;;1.90;;
21352;SDS011;10834;52.268;6.770;2022-11-15T17:30:47;2.47;;;1.80;;
21352;SDS011;10834;52.268;6.770;2022-11-15T17:33:33;2.03;;;1.63;;
21352;SDS011;10834;52.268;6.770;2022-11-15T17:36:19;6.03;;;2.00;;
21352;SDS011;10834;52.268;6.770;2022-11-15T17:39:05;6.33;;;2.50;;
21352;SDS011;10834;52.268;6.770;2022-11-15T17:41:51;4.87;;;2.47;;
21352;SDS011;10834;52.268;6.770;2022-11-15T17:44:37;3.43;;;2.43;;
21352;SDS011;10834;52.268;6.770;2022-11-15T17:47:24;7.07;;;2.03;;
21352;SDS011;10834;52.268;6.770;2022-11-15T17:50:09;4.40;;;2.37;;
21352;SDS011;10834;52.268;6.770;2022-11-15T17:52:57;6.13;;;1.90;;
21352;SDS011;10834;52.268;6.770;2022-11-15T17:55:44;6.50;;;5.27;;
21352;SDS011;10834;52.268;6.770;2022-11-15T17:58:30;3.00;;;2.20;;
21352;SDS011;10834;52.268;6.770;2022-11-15T18:01:17;3.23;;;2.17;;
21352;SDS011;10834;52.268;6.770;2022-11-15T18:04:06;6.13;;;3.93;;
21352;SDS011;10834;52.268;6.770;2022-11-15T18:06:53;6.07;;;2.10;;
21352;SDS011;10834;52.268;6.770;2022-11-15T18:09:40;9.43;;;5.00;;
21352;SDS011;10834;52.268;6.770;2022-11-15T18:12:28;6.60;;;4.07;;
21352;SDS011;10834;52.268;6.770;2022-11-15T18:15:14;8.57;;;3.10;;
21352;SDS011;10834;52.268;6.770;2022-11-15T18:18:00;3.83;;;3.13;;
21352;SDS011;10834;52.268;6.770;2022-11-15T18:20:46;2.80;;;1.97;;
21352;SDS011;10834;52.268;6.770;2022-11-15T18:23:33;3.13;;;2.43;;
21352;SDS011;10834;52.268;6.770;2022-11-15T18:26:19;5.13;;;3.00;;
21352;SDS011;10834;52.268;6.770;2022-11-15T18:29:05;6.13;;;3.70;;
21352;SDS011;10834;52.268;6.770;2022-11-15T18:31:52;3.00;;;2.30;;
21352;SDS011;10834;52.268;6.770;2022-11-15T18:34:42;3.43;;;2.00;;